Kaler, Kentucky
Current Conditions -  °F | °C
As of 2:35 AM on Monday 24 Nov 2014 (Local Time) from KM25 Reporting Station
Overcast Overcast  
Wind Chill: 63°   Ceiling: 2300
Heat Index: 63°   Visibility: 10mi
Dew Point: 55°   Wind: 24mph
Humidity: 77%   Direction: 210°SSW
Pressure: 29.35"   Gusts: 31mph
Location:  36.8496°N, 88.6894°W
Report Text: KM25 240835Z AUTO 21021G27KT 10SM BKN023 OVC028 17/13 A2935 RMK AO2
Loading
Personal Weather Stations






























Interactive Weather Map New forecast layout! Learn more

10-Day Weather Forecast

Advertisements
Track Severe Weather on mobile